sensor_id;sensor_type;location;lat;lon;timestamp;P1;durP1;ratioP1;P2;durP2;ratioP2
14268;SDS011;7218;51.480;7.006;2023-04-01T00:01:09;4.13;;;1.35;;
14268;SDS011;7218;51.480;7.006;2023-04-01T00:03:38;2.88;;;1.40;;
14268;SDS011;7218;51.480;7.006;2023-04-01T00:06:06;3.65;;;1.40;;
14268;SDS011;7218;51.480;7.006;2023-04-01T00:08:34;5.70;;;1.52;;
14268;SDS011;7218;51.480;7.006;2023-04-01T00:11:00;3.13;;;1.25;;
14268;SDS011;7218;51.480;7.006;2023-04-01T00:13:27;4.03;;;1.40;;
14268;SDS011;7218;51.480;7.006;2023-04-01T00:15:54;3.75;;;1.50;;
14268;SDS011;7218;51.480;7.006;2023-04-01T00:18:21;4.63;;;1.38;;
14268;SDS011;7218;51.480;7.006;2023-04-01T00:20:48;7.50;;;1.52;;
14268;SDS011;7218;51.480;7.006;2023-04-01T00:23:16;4.35;;;1.50;;
14268;SDS011;7218;51.480;7.006;2023-04-01T00:25:45;3.00;;;1.23;;
14268;SDS011;7218;51.480;7.006;2023-04-01T00:28:12;4.43;;;1.38;;
14268;SDS011;7218;51.480;7.006;2023-04-01T00:30:39;3.67;;;1.23;;
14268;SDS011;7218;51.480;7.006;2023-04-01T00:33:06;3.60;;;1.10;;
14268;SDS011;7218;51.480;7.006;2023-04-01T00:35:33;5.45;;;1.10;;
14268;SDS011;7218;51.480;7.006;2023-04-01T00:38:00;3.47;;;1.10;;
14268;SDS011;7218;51.480;7.006;2023-04-01T00:40:27;4.40;;;1.20;;
14268;SDS011;7218;51.480;7.006;2023-04-01T00:42:58;3.38;;;1.00;;
14268;SDS011;7218;51.480;7.006;2023-04-01T00:45:27;3.60;;;0.90;;
14268;SDS011;7218;51.480;7.006;2023-04-01T00:47:56;4.30;;;1.13;;
14268;SDS011;7218;51.480;7.006;2023-04-01T00:50:26;3.30;;;1.13;;
14268;SDS011;7218;51.480;7.006;2023-04-01T00:52:55;2.67;;;1.00;;
14268;SDS011;7218;51.480;7.006;2023-04-01T00:55:22;3.25;;;1.20;;
14268;SDS011;7218;51.480;7.006;2023-04-01T00:57:50;3.08;;;1.10;;
14268;SDS011;7218;51.480;7.006;2023-04-01T01:00:20;3.50;;;1.30;;
14268;SDS011;7218;51.480;7.006;2023-04-01T01:02:47;1.10;;;0.90;;
14268;SDS011;7218;51.480;7.006;2023-04-01T01:05:17;2.72;;;1.10;;
14268;SDS011;7218;51.480;7.006;2023-04-01T01:07:51;4.20;;;1.23;;
14268;SDS011;7218;51.480;7.006;2023-04-01T01:10:26;3.63;;;1.20;;
14268;SDS011;7218;51.480;7.006;2023-04-01T01:12:58;3.35;;;1.30;;
14268;SDS011;7218;51.480;7.006;2023-04-01T01:15:32;1.95;;;0.90;;
14268;SDS011;7218;51.480;7.006;2023-04-01T01:18:05;3.65;;;1.10;;
14268;SDS011;7218;51.480;7.006;2023-04-01T01:20:48;2.55;;;0.85;;
14268;SDS011;7218;51.480;7.006;2023-04-01T01:23:33;2.70;;;1.10;;
14268;SDS011;7218;51.480;7.006;2023-04-01T01:26:34;3.97;;;0.95;;
14268;SDS011;7218;51.480;7.006;2023-04-01T01:29:28;1.77;;;0.90;;
14268;SDS011;7218;51.480;7.006;2023-04-01T01:32:14;3.08;;;1.02;;
14268;SDS011;7218;51.480;7.006;2023-04-01T01:34:51;2.05;;;1.00;;
14268;SDS011;7218;51.480;7.006;2023-04-01T01:37:24;2.00;;;0.88;;
14268;SDS011;7218;51.480;7.006;2023-04-01T01:39:55;1.77;;;0.80;;
14268;SDS011;7218;51.480;7.006;2023-04-01T01:42:24;1.88;;;0.93;;
14268;SDS011;7218;51.480;7.006;2023-04-01T01:44:53;2.65;;;0.80;;
14268;SDS011;7218;51.480;7.006;2023-04-01T01:47:23;2.35;;;0.80;;
14268;SDS011;7218;51.480;7.006;2023-04-01T01:49:51;2.78;;;0.90;;
14268;SDS011;7218;51.480;7.006;2023-04-01T01:52:21;1.25;;;0.88;;
14268;SDS011;7218;51.480;7.006;2023-04-01T01:54:49;2.08;;;0.90;;
14268;SDS011;7218;51.480;7.006;2023-04-01T01:57:17;5.10;;;1.10;;
14268;SDS011;7218;51.480;7.006;2023-04-01T01:59:46;3.10;;;1.30;;
14268;SDS011;7218;51.480;7.006;2023-04-01T02:02:14;1.80;;;0.80;;
14268;SDS011;7218;51.480;7.006;2023-04-01T02:04:43;1.60;;;0.80;;
14268;SDS011;7218;51.480;7.006;2023-04-01T02:07:12;3.22;;;0.80;;
14268;SDS011;7218;51.480;7.006;2023-04-01T02:09:42;1.23;;;0.70;;
14268;SDS011;7218;51.480;7.006;2023-04-01T02:12:11;2.70;;;0.88;;
14268;SDS011;7218;51.480;7.006;2023-04-01T02:14:41;1.77;;;0.68;;
14268;SDS011;7218;51.480;7.006;2023-04-01T02:17:12;1.70;;;0.73;;
14268;SDS011;7218;51.480;7.006;2023-04-01T02:19:42;2.90;;;0.90;;
14268;SDS011;7218;51.480;7.006;2023-04-01T02:22:14;1.67;;;0.80;;
14268;SDS011;7218;51.480;7.006;2023-04-01T02:24:43;2.15;;;0.65;;
14268;SDS011;7218;51.480;7.006;2023-04-01T02:27:12;3.45;;;1.10;;
14268;SDS011;7218;51.480;7.006;2023-04-01T02:29:39;1.95;;;0.90;;
14268;SDS011;7218;51.480;7.006;2023-04-01T02:32:06;1.77;;;0.70;;
14268;SDS011;7218;51.480;7.006;2023-04-01T02:34:34;1.25;;;0.68;;
14268;SDS011;7218;51.480;7.006;2023-04-01T02:37:02;1.40;;;0.90;;
14268;SDS011;7218;51.480;7.006;2023-04-01T02:39:29;2.92;;;0.80;;
14268;SDS011;7218;51.480;7.006;2023-04-01T02:41:56;1.52;;;0.70;;
14268;SDS011;7218;51.480;7.006;2023-04-01T02:44:24;2.15;;;0.90;;
14268;SDS011;7218;51.480;7.006;2023-04-01T02:46:50;2.40;;;1.00;;
14268;SDS011;7218;51.480;7.006;2023-04-01T02:49:17;1.40;;;0.90;;
14268;SDS011;7218;51.480;7.006;2023-04-01T02:51:44;2.17;;;0.90;;
14268;SDS011;7218;51.480;7.006;2023-04-01T02:54:10;2.17;;;1.05;;
14268;SDS011;7218;51.480;7.006;2023-04-01T02:56:37;2.28;;;1.00;;
14268;SDS011;7218;51.480;7.006;2023-04-01T02:59:03;1.50;;;0.80;;
14268;SDS011;7218;51.480;7.006;2023-04-01T03:01:31;2.88;;;0.95;;
14268;SDS011;7218;51.480;7.006;2023-04-01T03:03:58;1.55;;;0.80;;
14268;SDS011;7218;51.480;7.006;2023-04-01T03:06:24;1.17;;;0.70;;
14268;SDS011;7218;51.480;7.006;2023-04-01T03:08:51;1.33;;;0.70;;
14268;SDS011;7218;51.480;7.006;2023-04-01T03:11:17;2.22;;;0.70;;
14268;SDS011;7218;51.480;7.006;2023-04-01T03:13:44;1.27;;;0.60;;
14268;SDS011;7218;51.480;7.006;2023-04-01T03:16:11;2.03;;;0.70;;
14268;SDS011;7218;51.480;7.006;2023-04-01T03:18:38;2.28;;;0.70;;
14268;SDS011;7218;51.480;7.006;2023-04-01T03:21:15;1.20;;;0.70;;
14268;SDS011;7218;51.480;7.006;2023-04-01T03:23:42;2.38;;;0.80;;
14268;SDS011;7218;51.480;7.006;2023-04-01T03:26:09;1.27;;;0.70;;
14268;SDS011;7218;51.480;7.006;2023-04-01T03:28:36;1.05;;;0.70;;
14268;SDS011;7218;51.480;7.006;2023-04-01T03:31:02;2.45;;;1.02;;
14268;SDS011;7218;51.480;7.006;2023-04-01T03:33:29;0.80;;;0.63;;
14268;SDS011;7218;51.480;7.006;2023-04-01T03:35:57;2.25;;;0.90;;
14268;SDS011;7218;51.480;7.006;2023-04-01T03:38:24;1.38;;;1.08;;
14268;SDS011;7218;51.480;7.006;2023-04-01T03:40:51;1.65;;;1.10;;
14268;SDS011;7218;51.480;7.006;2023-04-01T03:43:17;4.20;;;1.13;;
14268;SDS011;7218;51.480;7.006;2023-04-01T03:45:44;1.83;;;1.20;;
14268;SDS011;7218;51.480;7.006;2023-04-01T03:48:10;1.48;;;1.35;;
14268;SDS011;7218;51.480;7.006;2023-04-01T03:50:37;1.40;;;1.17;;
14268;SDS011;7218;51.480;7.006;2023-04-01T03:53:05;1.92;;;1.20;;
14268;SDS011;7218;51.480;7.006;2023-04-01T03:55:31;1.95;;;0.80;;
14268;SDS011;7218;51.480;7.006;2023-04-01T03:57:59;1.95;;;1.20;;
14268;SDS011;7218;51.480;7.006;2023-04-01T04:00:27;1.88;;;1.10;;
14268;SDS011;7218;51.480;7.006;2023-04-01T04:02:54;1.67;;;1.30;;
14268;SDS011;7218;51.480;7.006;2023-04-01T04:05:21;1.95;;;1.23;;
14268;SDS011;7218;51.480;7.006;2023-04-01T04:07:47;1.85;;;1.20;;
14268;SDS011;7218;51.480;7.006;2023-04-01T04:10:15;2.13;;;1.30;;
14268;SDS011;7218;51.480;7.006;2023-04-01T04:12:42;1.92;;;1.23;;
14268;SDS011;7218;51.480;7.006;2023-04-01T04:15:09;1.95;;;1.25;;
14268;SDS011;7218;51.480;7.006;2023-04-01T04:17:36;1.25;;;1.15;;
14268;SDS011;7218;51.480;7.006;2023-04-01T04:20:03;1.73;;;1.27;;
14268;SDS011;7218;51.480;7.006;2023-04-01T04:22:30;2.05;;;1.27;;
14268;SDS011;7218;51.480;7.006;2023-04-01T04:24:57;1.50;;;1.40;;
14268;SDS011;7218;51.480;7.006;2023-04-01T04:27:25;2.83;;;1.40;;
14268;SDS011;7218;51.480;7.006;2023-04-01T04:29:51;2.85;;;1.35;;
14268;SDS011;7218;51.480;7.006;2023-04-01T04:32:18;2.17;;;1.55;;
14268;SDS011;7218;51.480;7.006;2023-04-01T04:34:44;1.65;;;1.08;;
14268;SDS011;7218;51.480;7.006;2023-04-01T04:37:11;1.80;;;1.13;;
14268;SDS011;7218;51.480;7.006;2023-04-01T04:39:37;3.38;;;1.30;;
14268;SDS011;7218;51.480;7.006;2023-04-01T04:42:05;1.85;;;1.30;;
14268;SDS011;7218;51.480;7.006;2023-04-01T04:44:33;3.67;;;1.58;;
14268;SDS011;7218;51.480;7.006;2023-04-01T04:47:00;4.03;;;1.40;;
14268;SDS011;7218;51.480;7.006;2023-04-01T04:49:27;2.28;;;1.52;;
14268;SDS011;7218;51.480;7.006;2023-04-01T04:51:53;3.33;;;1.30;;
14268;SDS011;7218;51.480;7.006;2023-04-01T04:54:20;2.08;;;1.40;;
14268;SDS011;7218;51.480;7.006;2023-04-01T04:56:46;1.63;;;1.30;;
14268;SDS011;7218;51.480;7.006;2023-04-01T04:59:13;1.40;;;1.30;;
14268;SDS011;7218;51.480;7.006;2023-04-01T05:01:41;2.05;;;1.30;;
14268;SDS011;7218;51.480;7.006;2023-04-01T05:04:07;1.60;;;1.50;;
14268;SDS011;7218;51.480;7.006;2023-04-01T05:06:35;1.98;;;1.40;;
14268;SDS011;7218;51.480;7.006;2023-04-01T05:09:01;1.73;;;1.50;;
14268;SDS011;7218;51.480;7.006;2023-04-01T05:11:28;1.73;;;1.50;;
14268;SDS011;7218;51.480;7.006;2023-04-01T05:13:54;2.20;;;1.50;;
14268;SDS011;7218;51.480;7.006;2023-04-01T05:16:21;1.50;;;1.40;;
14268;SDS011;7218;51.480;7.006;2023-04-01T05:18:49;2.40;;;1.45;;
14268;SDS011;7218;51.480;7.006;2023-04-01T05:21:15;2.50;;;1.80;;
14268;SDS011;7218;51.480;7.006;2023-04-01T05:23:42;2.95;;;1.70;;
14268;SDS011;7218;51.480;7.006;2023-04-01T05:26:10;2.00;;;1.60;;
14268;SDS011;7218;51.480;7.006;2023-04-01T05:28:37;1.70;;;1.60;;
14268;SDS011;7218;51.480;7.006;2023-04-01T05:31:04;1.70;;;1.60;;
14268;SDS011;7218;51.480;7.006;2023-04-01T05:33:31;2.22;;;1.63;;
14268;SDS011;7218;51.480;7.006;2023-04-01T05:36:06;2.05;;;1.85;;
14268;SDS011;7218;51.480;7.006;2023-04-01T05:38:33;2.33;;;1.85;;
14268;SDS011;7218;51.480;7.006;2023-04-01T05:41:00;2.10;;;1.90;;
14268;SDS011;7218;51.480;7.006;2023-04-01T05:43:27;1.98;;;1.80;;
14268;SDS011;7218;51.480;7.006;2023-04-01T05:45:54;2.10;;;2.00;;
14268;SDS011;7218;51.480;7.006;2023-04-01T05:48:21;2.53;;;2.30;;
14268;SDS011;7218;51.480;7.006;2023-04-01T05:50:47;3.92;;;2.53;;
14268;SDS011;7218;51.480;7.006;2023-04-01T05:53:15;2.45;;;2.20;;
14268;SDS011;7218;51.480;7.006;2023-04-01T05:55:41;2.45;;;2.20;;
14268;SDS011;7218;51.480;7.006;2023-04-01T05:58:08;2.70;;;2.20;;
14268;SDS011;7218;51.480;7.006;2023-04-01T06:00:35;2.20;;;2.00;;
14268;SDS011;7218;51.480;7.006;2023-04-01T06:03:01;2.92;;;2.30;;
14268;SDS011;7218;51.480;7.006;2023-04-01T06:05:28;2.10;;;2.00;;
14268;SDS011;7218;51.480;7.006;2023-04-01T06:07:57;2.63;;;2.42;;
14268;SDS011;7218;51.480;7.006;2023-04-01T06:10:32;2.50;;;2.30;;
14268;SDS011;7218;51.480;7.006;2023-04-01T06:13:06;2.35;;;2.15;;
14268;SDS011;7218;51.480;7.006;2023-04-01T06:15:39;3.17;;;2.35;;
14268;SDS011;7218;51.480;7.006;2023-04-01T06:18:25;2.95;;;2.22;;
14268;SDS011;7218;51.480;7.006;2023-04-01T06:21:06;2.50;;;2.30;;
14268;SDS011;7218;51.480;7.006;2023-04-01T06:23:49;2.45;;;2.25;;
14268;SDS011;7218;51.480;7.006;2023-04-01T06:26:30;2.40;;;2.20;;
14268;SDS011;7218;51.480;7.006;2023-04-01T06:29:08;2.90;;;2.45;;
14268;SDS011;7218;51.480;7.006;2023-04-01T06:31:57;2.70;;;2.50;;
14268;SDS011;7218;51.480;7.006;2023-04-01T06:34:54;3.92;;;3.10;;
14268;SDS011;7218;51.480;7.006;2023-04-01T06:37:59;2.67;;;2.47;;
14268;SDS011;7218;51.480;7.006;2023-04-01T06:40:46;3.22;;;2.75;;
14268;SDS011;7218;51.480;7.006;2023-04-01T06:43:33;3.50;;;3.20;;
14268;SDS011;7218;51.480;7.006;2023-04-01T06:46:12;3.75;;;3.30;;
14268;SDS011;7218;51.480;7.006;2023-04-01T06:48:50;4.03;;;3.13;;
14268;SDS011;7218;51.480;7.006;2023-04-01T06:51:30;3.90;;;3.33;;
14268;SDS011;7218;51.480;7.006;2023-04-01T06:54:06;3.65;;;3.35;;
14268;SDS011;7218;51.480;7.006;2023-04-01T06:56:37;3.45;;;3.13;;
14268;SDS011;7218;51.480;7.006;2023-04-01T06:59:10;4.43;;;3.17;;
14268;SDS011;7218;51.480;7.006;2023-04-01T07:01:41;3.45;;;3.15;;
14268;SDS011;7218;51.480;7.006;2023-04-01T07:04:11;3.20;;;2.90;;
14268;SDS011;7218;51.480;7.006;2023-04-01T07:06:43;4.35;;;3.03;;
14268;SDS011;7218;51.480;7.006;2023-04-01T07:09:14;4.32;;;3.47;;
14268;SDS011;7218;51.480;7.006;2023-04-01T07:11:44;3.85;;;3.38;;
14268;SDS011;7218;51.480;7.006;2023-04-01T07:14:13;3.75;;;3.38;;
14268;SDS011;7218;51.480;7.006;2023-04-01T07:16:46;3.92;;;3.53;;
14268;SDS011;7218;51.480;7.006;2023-04-01T07:19:16;3.90;;;3.60;;
14268;SDS011;7218;51.480;7.006;2023-04-01T07:21:47;4.95;;;4.47;;
14268;SDS011;7218;51.480;7.006;2023-04-01T07:24:17;4.68;;;4.25;;
14268;SDS011;7218;51.480;7.006;2023-04-01T07:26:52;5.03;;;4.50;;
14268;SDS011;7218;51.480;7.006;2023-04-01T07:29:21;4.47;;;4.07;;
14268;SDS011;7218;51.480;7.006;2023-04-01T07:31:52;4.60;;;3.97;;
14268;SDS011;7218;51.480;7.006;2023-04-01T07:34:39;4.72;;;4.28;;
14268;SDS011;7218;51.480;7.006;2023-04-01T07:37:17;5.90;;;4.65;;
14268;SDS011;7218;51.480;7.006;2023-04-01T07:39:50;5.85;;;4.63;;
14268;SDS011;7218;51.480;7.006;2023-04-01T07:42:24;4.97;;;4.50;;
14268;SDS011;7218;51.480;7.006;2023-04-01T07:45:01;5.57;;;4.70;;
14268;SDS011;7218;51.480;7.006;2023-04-01T07:47:37;4.82;;;4.40;;
14268;SDS011;7218;51.480;7.006;2023-04-01T07:50:13;5.30;;;4.65;;
14268;SDS011;7218;51.480;7.006;2023-04-01T07:52:50;6.40;;;4.80;;
14268;SDS011;7218;51.480;7.006;2023-04-01T07:55:25;5.57;;;4.80;;
14268;SDS011;7218;51.480;7.006;2023-04-01T07:57:57;5.50;;;4.40;;
14268;SDS011;7218;51.480;7.006;2023-04-01T08:00:31;4.57;;;4.18;;
14268;SDS011;7218;51.480;7.006;2023-04-01T08:03:13;4.90;;;4.50;;
14268;SDS011;7218;51.480;7.006;2023-04-01T08:05:50;5.88;;;5.30;;
14268;SDS011;7218;51.480;7.006;2023-04-01T08:08:24;4.90;;;4.50;;
14268;SDS011;7218;51.480;7.006;2023-04-01T08:11:00;5.18;;;4.68;;
14268;SDS011;7218;51.480;7.006;2023-04-01T08:13:34;5.97;;;4.72;;
14268;SDS011;7218;51.480;7.006;2023-04-01T08:16:10;5.47;;;4.97;;
14268;SDS011;7218;51.480;7.006;2023-04-01T08:18:43;5.03;;;4.47;;
14268;SDS011;7218;51.480;7.006;2023-04-01T08:21:16;5.13;;;4.68;;
14268;SDS011;7218;51.480;7.006;2023-04-01T08:23:48;5.40;;;4.90;;
14268;SDS011;7218;51.480;7.006;2023-04-01T08:26:19;5.47;;;4.97;;
14268;SDS011;7218;51.480;7.006;2023-04-01T08:28:56;5.75;;;5.15;;
14268;SDS011;7218;51.480;7.006;2023-04-01T08:31:30;7.07;;;5.05;;
14268;SDS011;7218;51.480;7.006;2023-04-01T08:34:03;5.78;;;5.20;;
14268;SDS011;7218;51.480;7.006;2023-04-01T08:36:35;6.10;;;5.50;;
14268;SDS011;7218;51.480;7.006;2023-04-01T08:39:06;5.68;;;5.07;;
14268;SDS011;7218;51.480;7.006;2023-04-01T08:44:40;5.65;;;4.40;;
14268;SDS011;7218;51.480;7.006;2023-04-01T08:47:38;5.22;;;4.72;;
14268;SDS011;7218;51.480;7.006;2023-04-01T08:50:42;5.53;;;5.00;;
14268;SDS011;7218;51.480;7.006;2023-04-01T08:53:46;5.82;;;5.25;;
14268;SDS011;7218;51.480;7.006;2023-04-01T08:56:25;5.57;;;5.15;;
14268;SDS011;7218;51.480;7.006;2023-04-01T09:08:10;5.50;;;5.00;;
14268;SDS011;7218;51.480;7.006;2023-04-01T09:10:47;6.40;;;5.35;;
14268;SDS011;7218;51.480;7.006;2023-04-01T09:16:47;6.07;;;5.13;;
14268;SDS011;7218;51.480;7.006;2023-04-01T09:19:28;6.45;;;5.85;;
14268;SDS011;7218;51.480;7.006;2023-04-01T09:22:18;6.30;;;5.70;;
14268;SDS011;7218;51.480;7.006;2023-04-01T09:27:53;7.38;;;6.68;;
14268;SDS011;7218;51.480;7.006;2023-04-01T09:36:28;8.00;;;7.10;;
14268;SDS011;7218;51.480;7.006;2023-04-01T09:39:09;7.78;;;6.97;;
14268;SDS011;7218;51.480;7.006;2023-04-01T09:45:01;9.95;;;7.57;;
14268;SDS011;7218;51.480;7.006;2023-04-01T09:47:40;8.02;;;7.20;;
14268;SDS011;7218;51.480;7.006;2023-04-01T09:50:17;8.85;;;7.53;;
14268;SDS011;7218;51.480;7.006;2023-04-01T09:52:54;9.07;;;7.68;;
14268;SDS011;7218;51.480;7.006;2023-04-01T09:55:50;8.35;;;7.47;;
14268;SDS011;7218;51.480;7.006;2023-04-01T09:58:41;8.40;;;7.50;;
14268;SDS011;7218;51.480;7.006;2023-04-01T10:01:36;9.38;;;7.63;;
14268;SDS011;7218;51.480;7.006;2023-04-01T10:04:15;8.38;;;7.53;;
14268;SDS011;7218;51.480;7.006;2023-04-01T10:10:15;8.18;;;7.22;;
14268;SDS011;7218;51.480;7.006;2023-04-01T10:13:09;7.80;;;6.22;;
14268;SDS011;7218;51.480;7.006;2023-04-01T10:19:03;10.38;;;6.55;;
14268;SDS011;7218;51.480;7.006;2023-04-01T10:24:49;8.38;;;7.28;;
14268;SDS011;7218;51.480;7.006;2023-04-01T10:27:30;8.25;;;7.15;;
14268;SDS011;7218;51.480;7.006;2023-04-01T10:33:26;8.98;;;8.07;;
14268;SDS011;7218;51.480;7.006;2023-04-01T10:39:37;8.68;;;7.45;;
14268;SDS011;7218;51.480;7.006;2023-04-01T10:42:29;8.48;;;7.30;;
14268;SDS011;7218;51.480;7.006;2023-04-01T10:48:36;7.90;;;7.07;;
14268;SDS011;7218;51.480;7.006;2023-04-01T10:51:20;7.90;;;7.15;;
14268;SDS011;7218;51.480;7.006;2023-04-01T10:56:56;7.32;;;6.63;;
14268;SDS011;7218;51.480;7.006;2023-04-01T10:59:53;7.93;;;6.93;;
14268;SDS011;7218;51.480;7.006;2023-04-01T11:12:15;10.48;;;8.88;;
14268;SDS011;7218;51.480;7.006;2023-04-01T11:15:08;9.10;;;8.00;;
14268;SDS011;7218;51.480;7.006;2023-04-01T11:21:03;9.20;;;8.30;;
14268;SDS011;7218;51.480;7.006;2023-04-01T11:23:55;8.82;;;7.90;;
14268;SDS011;7218;51.480;7.006;2023-04-01T11:26:32;9.05;;;7.80;;
14268;SDS011;7218;51.480;7.006;2023-04-01T11:29:18;11.52;;;8.85;;
14268;SDS011;7218;51.480;7.006;2023-04-01T11:31:58;10.52;;;8.70;;
14268;SDS011;7218;51.480;7.006;2023-04-01T11:34:45;8.80;;;7.90;;
14268;SDS011;7218;51.480;7.006;2023-04-01T11:37:27;8.13;;;7.30;;
14268;SDS011;7218;51.480;7.006;2023-04-01T11:40:07;9.38;;;7.80;;
14268;SDS011;7218;51.480;7.006;2023-04-01T11:42:49;9.25;;;7.63;;
14268;SDS011;7218;51.480;7.006;2023-04-01T11:45:25;13.75;;;9.68;;
14268;SDS011;7218;51.480;7.006;2023-04-01T11:48:09;9.07;;;8.02;;
14268;SDS011;7218;51.480;7.006;2023-04-01T11:51:01;9.73;;;7.15;;
14268;SDS011;7218;51.480;7.006;2023-04-01T11:53:44;8.38;;;7.47;;
14268;SDS011;7218;51.480;7.006;2023-04-01T11:56:26;8.45;;;6.90;;
14268;SDS011;7218;51.480;7.006;2023-04-01T11:59:08;7.65;;;6.55;;
14268;SDS011;7218;51.480;7.006;2023-04-01T12:02:10;8.35;;;7.13;;
14268;SDS011;7218;51.480;7.006;2023-04-01T12:08:02;8.13;;;7.32;;
14268;SDS011;7218;51.480;7.006;2023-04-01T12:10:38;7.95;;;7.15;;
14268;SDS011;7218;51.480;7.006;2023-04-01T12:13:14;7.68;;;6.88;;
14268;SDS011;7218;51.480;7.006;2023-04-01T12:16:00;10.70;;;7.93;;
14268;SDS011;7218;51.480;7.006;2023-04-01T12:18:42;9.77;;;7.68;;
14268;SDS011;7218;51.480;7.006;2023-04-01T12:21:17;9.25;;;8.13;;
14268;SDS011;7218;51.480;7.006;2023-04-01T12:24:03;9.02;;;7.80;;
14268;SDS011;7218;51.480;7.006;2023-04-01T12:26:59;17.00;;;11.52;;
14268;SDS011;7218;51.480;7.006;2023-04-01T12:29:55;12.70;;;9.63;;
14268;SDS011;7218;51.480;7.006;2023-04-01T12:32:37;10.77;;;8.73;;
14268;SDS011;7218;51.480;7.006;2023-04-01T12:35:15;8.98;;;7.55;;
14268;SDS011;7218;51.480;7.006;2023-04-01T12:37:49;8.00;;;7.20;;
14268;SDS011;7218;51.480;7.006;2023-04-01T12:46:19;8.70;;;7.82;;
14268;SDS011;7218;51.480;7.006;2023-04-01T12:49:08;12.73;;;10.75;;
14268;SDS011;7218;51.480;7.006;2023-04-01T12:51:58;9.57;;;8.60;;
14268;SDS011;7218;51.480;7.006;2023-04-01T12:57:53;9.20;;;7.80;;
14268;SDS011;7218;51.480;7.006;2023-04-01T13:00:56;13.55;;;10.85;;
14268;SDS011;7218;51.480;7.006;2023-04-01T13:03:43;15.73;;;11.38;;
14268;SDS011;7218;51.480;7.006;2023-04-01T13:09:21;8.30;;;7.50;;
14268;SDS011;7218;51.480;7.006;2023-04-01T13:12:00;13.52;;;10.73;;
14268;SDS011;7218;51.480;7.006;2023-04-01T13:14:48;9.25;;;8.35;;
14268;SDS011;7218;51.480;7.006;2023-04-01T13:17:26;8.98;;;7.40;;
14268;SDS011;7218;51.480;7.006;2023-04-01T13:20:02;9.15;;;6.53;;
14268;SDS011;7218;51.480;7.006;2023-04-01T13:22:35;10.77;;;6.88;;
14268;SDS011;7218;51.480;7.006;2023-04-01T13:25:17;7.20;;;6.50;;
14268;SDS011;7218;51.480;7.006;2023-04-01T13:27:54;9.43;;;8.30;;
14268;SDS011;7218;51.480;7.006;2023-04-01T13:30:26;7.82;;;7.03;;
14268;SDS011;7218;51.480;7.006;2023-04-01T13:32:59;7.85;;;7.15;;
14268;SDS011;7218;51.480;7.006;2023-04-01T13:35:37;8.45;;;7.38;;
14268;SDS011;7218;51.480;7.006;2023-04-01T13:38:15;10.77;;;9.50;;
14268;SDS011;7218;51.480;7.006;2023-04-01T13:40:54;12.70;;;10.50;;
14268;SDS011;7218;51.480;7.006;2023-04-01T13:43:34;16.08;;;11.77;;
14268;SDS011;7218;51.480;7.006;2023-04-01T13:46:07;10.70;;;8.93;;
14268;SDS011;7218;51.480;7.006;2023-04-01T13:48:52;8.23;;;7.43;;
14268;SDS011;7218;51.480;7.006;2023-04-01T13:51:39;7.25;;;6.53;;
14268;SDS011;7218;51.480;7.006;2023-04-01T13:57:34;7.68;;;6.55;;
14268;SDS011;7218;51.480;7.006;2023-04-01T14:00:30;6.97;;;5.68;;
14268;SDS011;7218;51.480;7.006;2023-04-01T14:06:26;7.50;;;6.70;;
14268;SDS011;7218;51.480;7.006;2023-04-01T14:09:08;7.28;;;6.10;;
14268;SDS011;7218;51.480;7.006;2023-04-01T14:11:45;9.00;;;7.13;;
14268;SDS011;7218;51.480;7.006;2023-04-01T14:14:21;7.28;;;6.00;;
14268;SDS011;7218;51.480;7.006;2023-04-01T14:17:06;7.30;;;6.45;;
14268;SDS011;7218;51.480;7.006;2023-04-01T14:19:51;8.68;;;7.47;;
14268;SDS011;7218;51.480;7.006;2023-04-01T14:22:37;14.07;;;11.02;;
14268;SDS011;7218;51.480;7.006;2023-04-01T14:25:20;11.93;;;9.38;;
14268;SDS011;7218;51.480;7.006;2023-04-01T14:28:00;8.15;;;7.32;;
14268;SDS011;7218;51.480;7.006;2023-04-01T14:30:38;10.15;;;8.90;;
14268;SDS011;7218;51.480;7.006;2023-04-01T14:33:23;9.38;;;8.13;;
14268;SDS011;7218;51.480;7.006;2023-04-01T14:36:02;12.18;;;10.32;;
14268;SDS011;7218;51.480;7.006;2023-04-01T14:38:47;10.00;;;9.00;;
14268;SDS011;7218;51.480;7.006;2023-04-01T14:41:26;9.98;;;8.93;;
14268;SDS011;7218;51.480;7.006;2023-04-01T14:44:10;10.00;;;9.00;;
14268;SDS011;7218;51.480;7.006;2023-04-01T14:46:52;9.95;;;8.95;;
14268;SDS011;7218;51.480;7.006;2023-04-01T14:49:41;10.80;;;9.38;;
14268;SDS011;7218;51.480;7.006;2023-04-01T14:52:11;9.23;;;8.32;;
14268;SDS011;7218;51.480;7.006;2023-04-01T14:54:42;9.90;;;8.90;;
14268;SDS011;7218;51.480;7.006;2023-04-01T14:57:13;11.60;;;9.93;;
14268;SDS011;7218;51.480;7.006;2023-04-01T14:59:45;11.45;;;9.95;;
14268;SDS011;7218;51.480;7.006;2023-04-01T15:02:31;16.55;;;12.57;;
14268;SDS011;7218;51.480;7.006;2023-04-01T15:05:07;22.65;;;15.90;;
14268;SDS011;7218;51.480;7.006;2023-04-01T15:10:33;10.50;;;9.10;;
14268;SDS011;7218;51.480;7.006;2023-04-01T15:13:12;12.13;;;9.90;;
14268;SDS011;7218;51.480;7.006;2023-04-01T15:15:46;13.60;;;10.98;;
14268;SDS011;7218;51.480;7.006;2023-04-01T15:18:26;10.43;;;9.32;;
14268;SDS011;7218;51.480;7.006;2023-04-01T15:21:17;10.00;;;8.23;;
14268;SDS011;7218;51.480;7.006;2023-04-01T15:26:53;7.22;;;6.63;;
14268;SDS011;7218;51.480;7.006;2023-04-01T15:29:43;6.80;;;6.20;;
14268;SDS011;7218;51.480;7.006;2023-04-01T15:32:27;7.78;;;7.00;;
14268;SDS011;7218;51.480;7.006;2023-04-01T15:35:09;7.60;;;6.82;;
14268;SDS011;7218;51.480;7.006;2023-04-01T15:37:48;7.85;;;7.05;;
14268;SDS011;7218;51.480;7.006;2023-04-01T15:40:22;8.15;;;7.25;;
14268;SDS011;7218;51.480;7.006;2023-04-01T15:42:55;8.15;;;7.35;;
14268;SDS011;7218;51.480;7.006;2023-04-01T15:45:38;7.90;;;7.10;;
14268;SDS011;7218;51.480;7.006;2023-04-01T15:51:21;10.63;;;8.68;;
14268;SDS011;7218;51.480;7.006;2023-04-01T15:54:05;10.85;;;9.15;;
14268;SDS011;7218;51.480;7.006;2023-04-01T15:56:51;12.25;;;10.65;;
14268;SDS011;7218;51.480;7.006;2023-04-01T15:59:41;12.00;;;9.23;;
14268;SDS011;7218;51.480;7.006;2023-04-01T16:02:22;24.00;;;15.07;;
14268;SDS011;7218;51.480;7.006;2023-04-01T16:04:57;16.98;;;12.05;;
14268;SDS011;7218;51.480;7.006;2023-04-01T16:07:30;19.17;;;13.23;;
14268;SDS011;7218;51.480;7.006;2023-04-01T16:10:16;20.92;;;14.10;;
14268;SDS011;7218;51.480;7.006;2023-04-01T16:12:52;16.85;;;11.13;;
14268;SDS011;7218;51.480;7.006;2023-04-01T16:15:27;14.55;;;11.10;;
14268;SDS011;7218;51.480;7.006;2023-04-01T16:18:05;12.80;;;10.25;;
14268;SDS011;7218;51.480;7.006;2023-04-01T16:20:44;16.30;;;12.68;;
14268;SDS011;7218;51.480;7.006;2023-04-01T16:23:18;9.45;;;7.53;;
14268;SDS011;7218;51.480;7.006;2023-04-01T16:25:51;25.00;;;17.60;;
14268;SDS011;7218;51.480;7.006;2023-04-01T16:28:24;34.45;;;22.15;;
14268;SDS011;7218;51.480;7.006;2023-04-01T16:30:57;68.20;;;38.08;;
14268;SDS011;7218;51.480;7.006;2023-04-01T16:33:34;20.05;;;13.85;;
14268;SDS011;7218;51.480;7.006;2023-04-01T16:36:09;25.95;;;17.38;;
14268;SDS011;7218;51.480;7.006;2023-04-01T16:38:41;14.55;;;12.60;;
14268;SDS011;7218;51.480;7.006;2023-04-01T16:41:15;10.63;;;8.65;;
14268;SDS011;7218;51.480;7.006;2023-04-01T16:43:45;11.27;;;10.00;;
14268;SDS011;7218;51.480;7.006;2023-04-01T16:46:27;19.90;;;14.68;;
14268;SDS011;7218;51.480;7.006;2023-04-01T16:49:02;19.15;;;14.73;;
14268;SDS011;7218;51.480;7.006;2023-04-01T16:51:44;25.10;;;16.73;;
14268;SDS011;7218;51.480;7.006;2023-04-01T16:54:17;12.77;;;10.95;;
14268;SDS011;7218;51.480;7.006;2023-04-01T16:56:55;17.67;;;14.05;;
14268;SDS011;7218;51.480;7.006;2023-04-01T16:59:29;34.55;;;21.55;;
14268;SDS011;7218;51.480;7.006;2023-04-01T17:02:02;13.98;;;10.68;;
14268;SDS011;7218;51.480;7.006;2023-04-01T17:04:37;17.00;;;12.63;;
14268;SDS011;7218;51.480;7.006;2023-04-01T17:07:16;19.77;;;15.15;;
14268;SDS011;7218;51.480;7.006;2023-04-01T17:09:51;14.30;;;12.20;;
14268;SDS011;7218;51.480;7.006;2023-04-01T17:12:35;18.13;;;13.95;;
14268;SDS011;7218;51.480;7.006;2023-04-01T17:15:11;24.42;;;19.05;;
14268;SDS011;7218;51.480;7.006;2023-04-01T17:17:49;29.00;;;22.67;;
14268;SDS011;7218;51.480;7.006;2023-04-01T17:20:32;21.80;;;16.70;;